createdAt,value
2023-02-05T00:00:21.992Z,1014.51
2023-02-05T00:01:29.757Z,1014.52
2023-02-05T00:03:27.510Z,1014.52
2023-02-05T00:04:27.389Z,1014.52
2023-02-05T00:06:32.874Z,1014.56
2023-02-05T00:07:32.818Z,1014.56
2023-02-05T00:09:38.258Z,1014.60
2023-02-05T00:10:38.227Z,1014.62
2023-02-05T00:11:38.207Z,1014.65
2023-02-05T00:12:38.188Z,1014.65
2023-02-05T00:13:38.184Z,1014.62
2023-02-05T00:14:38.155Z,1014.62
2023-02-05T00:15:38.137Z,1014.64
2023-02-05T00:16:38.179Z,1014.62
2023-02-05T00:17:38.098Z,1014.62
2023-02-05T00:18:38.086Z,1014.61
2023-02-05T00:19:38.055Z,1014.56
2023-02-05T00:20:38.049Z,1014.57
2023-02-05T00:21:38.024Z,1014.54
2023-02-05T00:22:38.001Z,1014.55
2023-02-05T00:23:37.982Z,1014.53
2023-02-05T00:24:37.960Z,1014.53
2023-02-05T00:25:37.945Z,1014.51
2023-02-05T00:26:37.924Z,1014.49
2023-02-05T00:27:37.907Z,1014.46
2023-02-05T00:28:37.884Z,1014.46
2023-02-05T00:29:37.870Z,1014.42
2023-02-05T00:30:37.947Z,1014.44
2023-02-05T00:31:37.946Z,1014.41
2023-02-05T00:32:37.809Z,1014.41
2023-02-05T00:33:37.801Z,1014.40
2023-02-05T00:34:37.784Z,1014.39
2023-02-05T00:35:37.756Z,1014.37
2023-02-05T00:36:37.746Z,1014.34
2023-02-05T00:37:37.720Z,1014.31
2023-02-05T00:38:37.698Z,1014.36
2023-02-05T00:39:37.682Z,1014.32
2023-02-05T00:40:37.669Z,1014.36
2023-02-05T00:41:37.641Z,1014.36
2023-02-05T00:42:37.635Z,1014.34
2023-02-05T00:43:37.601Z,1014.33
2023-02-05T00:44:37.583Z,1014.35
2023-02-05T00:45:37.566Z,1014.34
2023-02-05T00:46:37.544Z,1014.31
2023-02-05T00:47:37.529Z,1014.35
2023-02-05T00:48:37.507Z,1014.31
2023-02-05T00:49:37.490Z,1014.31
2023-02-05T00:50:37.480Z,1014.35
2023-02-05T00:51:37.456Z,1014.33
2023-02-05T00:52:37.463Z,1014.33
2023-02-05T00:53:37.436Z,1014.35
2023-02-05T00:54:37.413Z,1014.38
2023-02-05T00:55:37.378Z,1014.37
2023-02-05T00:56:37.356Z,1014.40
2023-02-05T00:57:37.347Z,1014.41
2023-02-05T00:58:37.324Z,1014.39
2023-02-05T00:59:37.304Z,1014.46
2023-02-05T01:00:37.288Z,1014.40
2023-02-05T01:01:37.309Z,1014.43
2023-02-05T01:02:37.296Z,1014.41
2023-02-05T01:03:37.243Z,1014.40
2023-02-05T01:04:37.209Z,1014.39
2023-02-05T01:05:37.208Z,1014.37
2023-02-05T01:06:37.186Z,1014.34
2023-02-05T01:07:37.151Z,1014.30
2023-02-05T01:08:37.132Z,1014.32
2023-02-05T01:09:37.125Z,1014.30
2023-02-05T01:10:37.096Z,1014.29
2023-02-05T01:11:37.080Z,1014.26
2023-02-05T01:12:37.070Z,1014.26
2023-02-05T01:13:37.069Z,1014.25
2023-02-05T01:14:37.034Z,1014.22
2023-02-05T01:15:37.374Z,1014.20
2023-02-05T01:16:36.984Z,1014.16
2023-02-05T01:17:36.972Z,1014.14
2023-02-05T01:18:36.947Z,1014.16
2023-02-05T01:19:36.930Z,1014.18
2023-02-05T01:20:36.910Z,1014.12
2023-02-05T01:21:36.893Z,1014.07
2023-02-05T01:22:36.875Z,1014.08
2023-02-05T01:23:36.853Z,1014.07
2023-02-05T01:24:36.839Z,1014.10
2023-02-05T01:25:36.824Z,1014.01
2023-02-05T01:26:36.798Z,1013.99
2023-02-05T01:27:36.785Z,1013.96
2023-02-05T01:28:36.833Z,1013.92
2023-02-05T01:29:36.744Z,1013.90
2023-02-05T01:30:36.800Z,1013.86
2023-02-05T01:31:36.834Z,1013.81
2023-02-05T01:32:36.684Z,1013.78
2023-02-05T01:33:36.667Z,1013.83
2023-02-05T01:34:36.648Z,1013.83
2023-02-05T01:35:36.788Z,1013.82
2023-02-05T01:36:36.606Z,1013.81
2023-02-05T01:37:36.589Z,1013.80
2023-02-05T01:38:36.566Z,1013.77
2023-02-05T01:39:36.559Z,1013.77
2023-02-05T01:40:36.532Z,1013.79
2023-02-05T01:41:36.514Z,1013.76
2023-02-05T01:42:36.497Z,1013.75
2023-02-05T01:43:36.475Z,1013.71
2023-02-05T01:44:36.545Z,1013.73
2023-02-05T01:45:36.611Z,1013.72
2023-02-05T01:46:36.499Z,1013.77
2023-02-05T01:47:36.432Z,1013.80
2023-02-05T01:48:36.390Z,1013.78
2023-02-05T01:49:36.357Z,1013.78
2023-02-05T01:50:36.337Z,1013.77
2023-02-05T01:51:36.322Z,1013.82
2023-02-05T01:52:36.361Z,1013.80
2023-02-05T01:53:36.287Z,1013.75
2023-02-05T01:54:36.260Z,1013.77
2023-02-05T01:55:36.361Z,1013.74
2023-02-05T01:56:36.228Z,1013.71
2023-02-05T01:57:36.201Z,1013.68
2023-02-05T01:58:36.187Z,1013.65
2023-02-05T01:59:36.158Z,1013.62
2023-02-05T02:00:36.233Z,1013.55
2023-02-05T02:01:36.132Z,1013.54
2023-02-05T02:02:36.101Z,1013.48
2023-02-05T02:03:36.096Z,1013.48
2023-02-05T02:04:36.076Z,1013.49
2023-02-05T02:05:36.232Z,1013.43
2023-02-05T02:06:36.038Z,1013.42
2023-02-05T02:07:36.009Z,1013.38
2023-02-05T02:08:35.981Z,1013.34
2023-02-05T02:09:35.978Z,1013.30
2023-02-05T02:10:36.025Z,1013.32
2023-02-05T02:11:35.926Z,1013.32
2023-02-05T02:12:35.906Z,1013.28
2023-02-05T02:13:35.913Z,1013.29
2023-02-05T02:14:35.872Z,1013.26
2023-02-05T02:15:36.182Z,1013.29
2023-02-05T02:16:35.834Z,1013.29
2023-02-05T02:17:35.812Z,1013.39
2023-02-05T02:18:35.794Z,1013.39
2023-02-05T02:19:35.771Z,1013.44
2023-02-05T02:20:35.747Z,1013.46
2023-02-05T02:21:35.733Z,1013.48
2023-02-05T02:22:35.717Z,1013.50
2023-02-05T02:23:35.692Z,1013.51
2023-02-05T02:24:35.670Z,1013.47
2023-02-05T02:25:35.983Z,1013.45
2023-02-05T02:26:35.637Z,1013.44
2023-02-05T02:27:35.630Z,1013.42
2023-02-05T02:28:35.607Z,1013.43
2023-02-05T02:29:35.577Z,1013.41
2023-02-05T02:30:35.620Z,1013.45
2023-02-05T02:31:35.609Z,1013.48
2023-02-05T02:32:35.525Z,1013.45
2023-02-05T02:33:35.522Z,1013.47
2023-02-05T02:34:35.474Z,1013.43
2023-02-05T02:35:35.806Z,1013.45
2023-02-05T02:36:35.442Z,1013.40
2023-02-05T02:37:35.419Z,1013.39
2023-02-05T02:38:35.397Z,1013.38
2023-02-05T02:39:35.529Z,1013.38
2023-02-05T02:40:35.359Z,1013.38
2023-02-05T02:41:35.337Z,1013.39
2023-02-05T02:42:35.323Z,1013.40
2023-02-05T02:43:35.302Z,1013.40
2023-02-05T02:44:35.281Z,1013.38
2023-02-05T02:45:35.488Z,1013.38
2023-02-05T02:46:35.307Z,1013.41
2023-02-05T02:47:35.228Z,1013.40
2023-02-05T02:48:35.203Z,1013.37
2023-02-05T02:49:35.188Z,1013.38
2023-02-05T02:50:35.168Z,1013.36
2023-02-05T02:51:35.151Z,1013.27
2023-02-05T02:52:35.124Z,1013.31
2023-02-05T02:53:35.110Z,1013.28
2023-02-05T02:54:35.089Z,1013.23
2023-02-05T02:55:35.482Z,1013.23
2023-02-05T02:56:35.053Z,1013.22
2023-02-05T02:57:35.043Z,1013.19
2023-02-05T02:58:35.010Z,1013.19
2023-02-05T02:59:34.989Z,1013.16
2023-02-05T03:00:35.033Z,1013.20
2023-02-05T03:01:34.980Z,1013.16
2023-02-05T03:02:34.935Z,1013.15
2023-02-05T03:03:34.921Z,1013.14
2023-02-05T03:04:34.909Z,1013.15
2023-02-05T03:05:35.190Z,1013.15
2023-02-05T03:06:34.867Z,1013.17
2023-02-05T03:07:34.836Z,1013.17
2023-02-05T03:08:34.832Z,1013.13
2023-02-05T03:09:34.797Z,1013.17
2023-02-05T03:10:34.781Z,1013.15
2023-02-05T03:11:34.757Z,1013.10
2023-02-05T03:12:34.742Z,1013.03
2023-02-05T03:13:34.727Z,1013.03
2023-02-05T03:14:34.718Z,1013.04
2023-02-05T03:15:35.095Z,1012.98
2023-02-05T03:16:34.669Z,1012.97
2023-02-05T03:17:34.645Z,1012.93
2023-02-05T03:18:34.618Z,1012.94
2023-02-05T03:19:34.631Z,1012.91
2023-02-05T03:20:34.580Z,1012.95
2023-02-05T03:21:34.606Z,1012.91
2023-02-05T03:22:34.541Z,1012.84
2023-02-05T03:23:34.523Z,1012.79
2023-02-05T03:24:34.501Z,1012.75
2023-02-05T03:25:34.811Z,1012.81
2023-02-05T03:26:34.460Z,1012.82
2023-02-05T03:27:34.441Z,1012.83
2023-02-05T03:28:34.422Z,1012.86
2023-02-05T03:29:34.400Z,1012.91
2023-02-05T03:30:34.405Z,1012.90
2023-02-05T03:31:34.408Z,1012.90
2023-02-05T03:32:34.341Z,1012.92
2023-02-05T03:33:34.332Z,1012.93
2023-02-05T03:34:34.308Z,1012.88
2023-02-05T03:35:34.563Z,1012.87
2023-02-05T03:36:34.262Z,1012.85
2023-02-05T03:37:34.241Z,1012.84
2023-02-05T03:38:34.222Z,1012.85
2023-02-05T03:39:34.205Z,1012.86
2023-02-05T03:40:34.188Z,1012.88
2023-02-05T03:41:34.162Z,1012.92
2023-02-05T03:42:34.144Z,1012.93
2023-02-05T03:43:34.129Z,1012.91
2023-02-05T03:44:34.128Z,1012.92
2023-02-05T03:45:34.336Z,1012.91
2023-02-05T03:46:34.069Z,1012.89
2023-02-05T03:47:34.047Z,1012.91
2023-02-05T03:48:34.025Z,1012.93
2023-02-05T03:49:34.021Z,1012.90
2023-02-05T03:50:33.988Z,1012.93
2023-02-05T03:51:33.990Z,1012.81
2023-02-05T03:52:33.948Z,1012.75
2023-02-05T03:53:33.927Z,1012.71
2023-02-05T03:54:33.906Z,1012.65
2023-02-05T03:55:34.169Z,1012.66
2023-02-05T03:56:33.864Z,1012.66
2023-02-05T03:57:33.846Z,1012.66
2023-02-05T03:58:33.828Z,1012.74
2023-02-05T03:59:33.822Z,1012.82
2023-02-05T04:00:33.800Z,1012.79
2023-02-05T04:01:33.764Z,1012.78
2023-02-05T04:02:33.757Z,1012.76
2023-02-05T04:03:33.754Z,1012.74
2023-02-05T04:04:33.739Z,1012.70
2023-02-05T04:05:34.092Z,1012.69
2023-02-05T04:06:33.721Z,1012.66
2023-02-05T04:07:33.764Z,1012.67
2023-02-05T04:08:33.722Z,1012.68
2023-02-05T04:09:33.608Z,1012.69
2023-02-05T04:10:33.588Z,1012.68
2023-02-05T04:11:33.694Z,1012.69
2023-02-05T04:12:33.580Z,1012.76
2023-02-05T04:13:33.534Z,1012.76
2023-02-05T04:14:33.591Z,1012.82
2023-02-05T04:15:33.854Z,1012.87
2023-02-05T04:16:33.521Z,1012.90
2023-02-05T04:17:33.453Z,1012.94
2023-02-05T04:18:33.437Z,1012.94
2023-02-05T04:19:33.408Z,1012.92
2023-02-05T04:20:33.395Z,1012.96
2023-02-05T04:21:33.393Z,1012.86
2023-02-05T04:22:33.364Z,1012.82
2023-02-05T04:23:33.334Z,1012.76
2023-02-05T04:24:33.313Z,1012.76
2023-02-05T04:25:33.687Z,1012.72
2023-02-05T04:26:33.271Z,1012.70
2023-02-05T04:27:33.254Z,1012.72
2023-02-05T04:28:33.245Z,1012.71
2023-02-05T04:29:33.215Z,1012.73
2023-02-05T04:30:33.212Z,1012.71
2023-02-05T04:31:33.225Z,1012.74
2023-02-05T04:32:33.198Z,1012.75
2023-02-05T04:33:33.148Z,1012.79
2023-02-05T04:34:33.122Z,1012.83
2023-02-05T04:35:33.403Z,1012.84
2023-02-05T04:36:33.088Z,1012.82
2023-02-05T04:37:33.068Z,1012.83
2023-02-05T04:38:33.048Z,1012.77
2023-02-05T04:39:33.025Z,1012.77
2023-02-05T04:40:33.007Z,1012.72
2023-02-05T04:41:32.989Z,1012.68
2023-02-05T04:42:32.971Z,1012.70
2023-02-05T04:43:32.948Z,1012.66
2023-02-05T04:44:32.929Z,1012.65
2023-02-05T04:45:33.298Z,1012.69
2023-02-05T04:46:32.893Z,1012.67
2023-02-05T04:47:32.877Z,1012.69
2023-02-05T04:48:32.857Z,1012.70
2023-02-05T04:49:32.832Z,1012.70
2023-02-05T04:50:32.815Z,1012.72
2023-02-05T04:51:32.794Z,1012.67
2023-02-05T04:52:32.774Z,1012.71
2023-02-05T04:53:32.765Z,1012.70
2023-02-05T04:54:32.738Z,1012.71
2023-02-05T04:55:32.969Z,1012.76
2023-02-05T04:56:32.731Z,1012.73
2023-02-05T04:57:32.677Z,1012.78
2023-02-05T04:58:32.667Z,1012.79
2023-02-05T04:59:32.644Z,1012.84
2023-02-05T05:00:32.624Z,1012.83
2023-02-05T05:01:32.686Z,1012.80
2023-02-05T05:02:32.676Z,1012.78
2023-02-05T05:03:32.562Z,1012.79
2023-02-05T05:04:32.573Z,1012.79
2023-02-05T05:05:32.834Z,1012.64
2023-02-05T05:06:32.516Z,1012.70
2023-02-05T05:07:32.489Z,1012.63
2023-02-05T05:08:32.471Z,1012.62
2023-02-05T05:09:32.456Z,1012.63
2023-02-05T05:10:32.436Z,1012.65
2023-02-05T05:11:32.420Z,1012.60
2023-02-05T05:12:32.391Z,1012.66
2023-02-05T05:13:32.378Z,1012.63
2023-02-05T05:14:32.354Z,1012.64
2023-02-05T05:15:32.746Z,1012.61
2023-02-05T05:16:32.315Z,1012.65
2023-02-05T05:17:32.312Z,1012.67
2023-02-05T05:18:32.280Z,1012.65
2023-02-05T05:19:32.255Z,1012.66
2023-02-05T05:20:32.240Z,1012.65
2023-02-05T05:21:32.234Z,1012.61
2023-02-05T05:22:32.204Z,1012.61
2023-02-05T05:23:32.192Z,1012.59
2023-02-05T05:24:32.166Z,1012.56
2023-02-05T05:25:32.635Z,1012.61
2023-02-05T05:26:32.131Z,1012.58
2023-02-05T05:27:32.103Z,1012.64
2023-02-05T05:28:32.086Z,1012.62
2023-02-05T05:29:32.064Z,1012.62
2023-02-05T05:30:32.057Z,1012.66
2023-02-05T05:31:32.026Z,1012.68
2023-02-05T05:32:32.010Z,1012.64
2023-02-05T05:33:31.990Z,1012.60
2023-02-05T05:34:31.979Z,1012.63
2023-02-05T05:35:32.296Z,1012.64
2023-02-05T05:36:31.942Z,1012.65
2023-02-05T05:37:31.917Z,1012.64
2023-02-05T05:38:31.895Z,1012.70
2023-02-05T05:39:31.877Z,1012.70
2023-02-05T05:40:31.858Z,1012.77
2023-02-05T05:41:31.848Z,1012.74
2023-02-05T05:42:31.835Z,1012.77
2023-02-05T05:43:31.802Z,1012.72
2023-02-05T05:44:31.790Z,1012.78
2023-02-05T05:45:32.160Z,1012.77
2023-02-05T05:46:31.747Z,1012.75
2023-02-05T05:47:31.734Z,1012.73
2023-02-05T05:48:31.707Z,1012.75
2023-02-05T05:49:31.700Z,1012.73
2023-02-05T05:50:31.677Z,1012.70
2023-02-05T05:51:31.650Z,1012.71
2023-02-05T05:52:32.802Z,1012.67
2023-02-05T05:53:31.611Z,1012.66
2023-02-05T05:54:31.592Z,1012.63
2023-02-05T05:55:31.800Z,1012.61
2023-02-05T05:56:31.560Z,1012.61
2023-02-05T05:57:31.538Z,1012.64
2023-02-05T05:58:31.529Z,1012.59
2023-02-05T05:59:31.502Z,1012.60
2023-02-05T06:00:31.476Z,1012.58
2023-02-05T06:01:31.455Z,1012.52
2023-02-05T06:02:31.490Z,1012.51
2023-02-05T06:03:31.424Z,1012.51
2023-02-05T06:04:31.431Z,1012.51
2023-02-05T06:05:31.542Z,1012.53
2023-02-05T06:06:31.363Z,1012.55
2023-02-05T06:07:31.346Z,1012.54
2023-02-05T06:08:31.339Z,1012.58
2023-02-05T06:09:31.307Z,1012.59
2023-02-05T06:10:31.287Z,1012.55
2023-02-05T06:11:31.273Z,1012.60
2023-02-05T06:12:31.253Z,1012.65
2023-02-05T06:13:31.245Z,1012.75
2023-02-05T06:14:31.210Z,1012.74
2023-02-05T06:15:31.191Z,1012.81
2023-02-05T06:16:31.176Z,1012.82
2023-02-05T06:17:31.157Z,1012.81
2023-02-05T06:18:31.159Z,1012.85
2023-02-05T06:19:31.113Z,1012.89
2023-02-05T06:20:31.101Z,1012.93
2023-02-05T06:21:31.077Z,1012.94
2023-02-05T06:22:31.062Z,1012.97
2023-02-05T06:23:31.041Z,1012.96
2023-02-05T06:24:31.157Z,1012.91
2023-02-05T06:25:31.000Z,1012.93
2023-02-05T06:26:30.984Z,1012.94
2023-02-05T06:27:30.962Z,1012.92
2023-02-05T06:28:30.946Z,1012.94
2023-02-05T06:29:30.930Z,1012.93
2023-02-05T06:30:30.912Z,1012.90
2023-02-05T06:31:31.068Z,1012.92
2023-02-05T06:32:30.870Z,1012.89
2023-02-05T06:33:30.865Z,1012.93
2023-02-05T06:34:30.834Z,1012.90
2023-02-05T06:35:30.818Z,1012.92
2023-02-05T06:36:30.796Z,1012.95
2023-02-05T06:37:46.326Z,1012.90
2023-02-05T06:38:30.770Z,1012.84
2023-02-05T06:39:30.744Z,1012.81
2023-02-05T06:40:30.720Z,1012.78
2023-02-05T06:41:30.716Z,1012.66
2023-02-05T06:42:30.688Z,1012.64
2023-02-05T06:43:30.671Z,1012.61
2023-02-05T06:44:30.644Z,1012.58
2023-02-05T06:45:30.633Z,1012.51
2023-02-05T06:46:30.628Z,1012.55
2023-02-05T06:47:30.586Z,1012.56
2023-02-05T06:48:30.570Z,1012.63
2023-02-05T06:49:30.555Z,1012.64
2023-02-05T06:50:30.548Z,1012.64
2023-02-05T06:51:30.513Z,1012.67
2023-02-05T06:52:30.507Z,1012.68
2023-02-05T06:53:30.473Z,1012.71
2023-02-05T06:54:30.473Z,1012.71
2023-02-05T06:55:30.436Z,1012.67
2023-02-05T06:56:30.416Z,1012.66
2023-02-05T06:57:30.395Z,1012.62
2023-02-05T06:58:30.408Z,1012.59
2023-02-05T06:59:30.360Z,1012.53
2023-02-05T07:00:32.340Z,1012.52
2023-02-05T07:01:30.343Z,1012.51
2023-02-05T07:02:30.354Z,1012.50
2023-02-05T07:03:30.286Z,1012.51
2023-02-05T07:04:30.263Z,1012.49
2023-02-05T07:05:30.254Z,1012.48
2023-02-05T07:06:30.243Z,1012.48
2023-02-05T07:07:30.219Z,1012.45
2023-02-05T07:08:30.207Z,1012.45
2023-02-05T07:09:30.171Z,1012.50
2023-02-05T07:10:30.153Z,1012.48
2023-02-05T07:11:30.142Z,1012.46
2023-02-05T07:12:30.121Z,1012.48
2023-02-05T07:13:30.118Z,1012.47
2023-02-05T07:14:30.075Z,1012.49
2023-02-05T07:15:30.065Z,1012.51
2023-02-05T07:16:30.038Z,1012.52
2023-02-05T07:17:30.025Z,1012.46
2023-02-05T07:18:30.000Z,1012.43
2023-02-05T07:19:29.982Z,1012.40
2023-02-05T07:20:29.964Z,1012.37
2023-02-05T07:21:29.980Z,1012.34
2023-02-05T07:22:29.929Z,1012.38
2023-02-05T07:23:29.900Z,1012.35
2023-02-05T07:24:29.894Z,1012.36
2023-02-05T07:25:29.860Z,1012.36
2023-02-05T07:26:29.842Z,1012.42
2023-02-05T07:27:29.824Z,1012.41
2023-02-05T07:28:29.806Z,1012.37
2023-02-05T07:29:29.784Z,1012.35
2023-02-05T07:30:29.777Z,1012.34
2023-02-05T07:31:29.839Z,1012.38
2023-02-05T07:32:29.736Z,1012.35
2023-02-05T07:33:29.715Z,1012.36
2023-02-05T07:34:29.684Z,1012.37
2023-02-05T07:35:29.666Z,1012.38
2023-02-05T07:36:29.650Z,1012.39
2023-02-05T07:37:29.624Z,1012.37
2023-02-05T07:38:29.605Z,1012.37
2023-02-05T07:39:29.589Z,1012.34
2023-02-05T07:40:29.697Z,1012.36
2023-02-05T07:41:29.548Z,1012.39
2023-02-05T07:42:31.523Z,1012.46
2023-02-05T07:43:29.508Z,1012.45
2023-02-05T07:44:29.483Z,1012.45
2023-02-05T07:45:29.478Z,1012.46
2023-02-05T07:46:29.488Z,1012.45
2023-02-05T07:47:29.427Z,1012.44
2023-02-05T07:48:29.405Z,1012.48
2023-02-05T07:49:29.392Z,1012.46
2023-02-05T07:50:29.376Z,1012.42
2023-02-05T07:51:29.929Z,1012.37
2023-02-05T07:52:29.327Z,1012.35
2023-02-05T07:53:29.321Z,1012.30
2023-02-05T07:54:29.288Z,1012.32
2023-02-05T07:55:29.267Z,1012.32
2023-02-05T07:56:29.250Z,1012.28
2023-02-05T07:57:29.231Z,1012.27
2023-02-05T07:58:29.208Z,1012.25
2023-02-05T07:59:29.195Z,1012.22
2023-02-05T08:00:29.170Z,1012.15
2023-02-05T08:01:29.153Z,1012.11
2023-02-05T08:02:29.135Z,1012.09
2023-02-05T08:03:29.116Z,1012.07
2023-02-05T08:04:29.151Z,1012.03
2023-02-05T08:05:29.130Z,1012.04
2023-02-05T08:06:29.058Z,1011.99
2023-02-05T08:07:29.040Z,1011.95
2023-02-05T08:08:29.016Z,1011.92
2023-02-05T08:09:29.570Z,1011.92
2023-02-05T08:10:28.977Z,1011.84
2023-02-05T08:11:30.675Z,1011.79
2023-02-05T08:12:28.962Z,1011.76
2023-02-05T08:13:28.922Z,1011.81
2023-02-05T08:14:28.905Z,1011.85
2023-02-05T08:15:28.882Z,1011.79
2023-02-05T08:16:29.042Z,1011.72
2023-02-05T08:17:28.850Z,1011.64
2023-02-05T08:18:28.829Z,1011.62
2023-02-05T08:19:28.807Z,1011.61
2023-02-05T08:20:28.786Z,1011.63
2023-02-05T08:21:28.776Z,1011.56
2023-02-05T08:22:28.756Z,1011.52
2023-02-05T08:23:28.738Z,1011.52
2023-02-05T08:24:28.720Z,1011.56
2023-02-05T08:25:28.694Z,1011.69
2023-02-05T08:26:28.676Z,1011.76
2023-02-05T08:27:30.102Z,1011.89
2023-02-05T08:28:28.641Z,1011.92
2023-02-05T08:29:28.632Z,1011.95
2023-02-05T08:30:28.630Z,1011.97
2023-02-05T08:31:28.606Z,1011.95
2023-02-05T08:32:28.557Z,1012.00
2023-02-05T08:33:28.539Z,1011.99
2023-02-05T08:34:28.521Z,1012.02
2023-02-05T08:35:28.506Z,1012.02
2023-02-05T08:36:28.487Z,1012.01
2023-02-05T08:37:28.471Z,1011.95
2023-02-05T08:38:28.496Z,1012.03
2023-02-05T08:39:28.424Z,1012.04
2023-02-05T08:40:28.417Z,1012.01
2023-02-05T08:41:28.389Z,1012.00
2023-02-05T08:42:28.368Z,1011.97
2023-02-05T08:43:28.353Z,1011.97
2023-02-05T08:44:28.331Z,1011.95
2023-02-05T08:45:28.453Z,1011.96
2023-02-05T08:46:40.226Z,1011.91
2023-02-05T08:47:28.281Z,1011.92
2023-02-05T08:48:28.254Z,1011.89
2023-02-05T08:49:28.236Z,1011.85
2023-02-05T08:50:28.215Z,1011.88
2023-02-05T08:51:28.201Z,1011.81
2023-02-05T08:52:28.177Z,1011.89
2023-02-05T08:53:28.179Z,1011.84
2023-02-05T08:54:28.140Z,1011.87
2023-02-05T08:55:28.127Z,1011.83
2023-02-05T08:56:28.100Z,1011.87
2023-02-05T08:57:28.084Z,1011.86
2023-02-05T08:58:28.066Z,1011.85
2023-02-05T08:59:28.045Z,1011.85
2023-02-05T09:00:28.025Z,1011.84
2023-02-05T09:01:28.180Z,1011.85
2023-02-05T09:02:30.488Z,1011.84
2023-02-05T09:03:27.973Z,1011.84
2023-02-05T09:04:28.050Z,1011.83
2023-02-05T09:05:27.943Z,1011.87
2023-02-05T09:06:27.918Z,1011.88
2023-02-05T09:07:27.907Z,1011.86
2023-02-05T09:08:29.837Z,1011.86
2023-02-05T09:09:27.920Z,1011.83
2023-02-05T09:10:27.840Z,1011.77
2023-02-05T09:11:27.820Z,1011.77
2023-02-05T09:12:27.804Z,1011.75
2023-02-05T09:13:27.795Z,1011.73
2023-02-05T09:14:27.764Z,1011.73
2023-02-05T09:15:27.789Z,1011.72
2023-02-05T09:16:27.798Z,1011.69
2023-02-05T09:17:27.716Z,1011.77
2023-02-05T09:18:27.709Z,1011.77
2023-02-05T09:19:27.684Z,1011.76
2023-02-05T09:20:27.658Z,1011.78
2023-02-05T09:21:27.650Z,1011.76
2023-02-05T09:22:27.626Z,1011.79
2023-02-05T09:23:27.606Z,1011.81
2023-02-05T09:24:27.594Z,1011.74
2023-02-05T09:25:27.577Z,1011.75
2023-02-05T09:26:27.570Z,1011.76
2023-02-05T09:27:27.534Z,1011.72
2023-02-05T09:28:27.512Z,1011.76
2023-02-05T09:29:27.497Z,1011.71
2023-02-05T09:30:27.510Z,1011.72
2023-02-05T09:31:27.594Z,1011.71
2023-02-05T09:32:27.443Z,1011.78
2023-02-05T09:33:27.432Z,1011.81
2023-02-05T09:34:27.415Z,1011.85
2023-02-05T09:35:27.384Z,1011.80
2023-02-05T09:36:27.365Z,1011.79
2023-02-05T09:37:27.357Z,1011.77
2023-02-05T09:38:27.332Z,1011.68
2023-02-05T09:40:05.595Z,1011.68
2023-02-05T09:40:28.429Z,1011.65
2023-02-05T09:41:27.269Z,1011.66
2023-02-05T09:42:27.279Z,1011.64
2023-02-05T09:43:27.228Z,1011.69
2023-02-05T09:44:27.219Z,1011.68
2023-02-05T09:45:27.792Z,1011.68
2023-02-05T09:46:27.231Z,1011.60
2023-02-05T09:47:27.167Z,1011.61
2023-02-05T09:48:27.526Z,1011.57
2023-02-05T09:49:27.123Z,1011.60
2023-02-05T09:50:27.100Z,1011.58
2023-02-05T09:51:27.130Z,1011.58
2023-02-05T09:52:27.062Z,1011.59
2023-02-05T09:53:27.045Z,1011.59
2023-02-05T09:54:27.042Z,1011.59
2023-02-05T09:55:27.009Z,1011.52
2023-02-05T09:56:26.985Z,1011.55
2023-02-05T09:57:26.970Z,1011.48
2023-02-05T09:58:26.953Z,1011.52
2023-02-05T09:59:26.929Z,1011.46
2023-02-05T10:00:26.906Z,1011.47
2023-02-05T10:01:26.921Z,1011.47
2023-02-05T10:02:26.896Z,1011.51
2023-02-05T10:03:26.868Z,1011.47
2023-02-05T10:04:26.849Z,1011.49
2023-02-05T10:05:26.826Z,1011.49
2023-02-05T10:06:26.801Z,1011.49
2023-02-05T10:07:26.786Z,1011.46
2023-02-05T10:08:26.767Z,1011.51
2023-02-05T10:09:26.742Z,1011.48
2023-02-05T10:10:26.748Z,1011.47
2023-02-05T10:11:26.700Z,1011.48
2023-02-05T10:12:26.681Z,1011.46
2023-02-05T10:13:26.667Z,1011.43
2023-02-05T10:14:26.654Z,1011.43
2023-02-05T10:15:26.628Z,1011.41
2023-02-05T10:16:26.618Z,1011.46
2023-02-05T10:17:26.615Z,1011.40
2023-02-05T10:18:26.567Z,1011.41
2023-02-05T10:19:26.547Z,1011.40
2023-02-05T10:20:26.623Z,1011.44
2023-02-05T10:21:26.519Z,1011.49
2023-02-05T10:22:26.503Z,1011.45
2023-02-05T10:23:26.473Z,1011.37
2023-02-05T10:24:26.455Z,1011.35
2023-02-05T10:25:26.450Z,1011.34
2023-02-05T10:26:26.421Z,1011.31
2023-02-05T10:27:26.407Z,1011.33
2023-02-05T10:28:26.394Z,1011.33
2023-02-05T10:29:26.381Z,1011.35
2023-02-05T10:30:26.400Z,1011.33
2023-02-05T10:31:26.400Z,1011.33
2023-02-05T10:32:26.316Z,1011.33
2023-02-05T10:33:26.299Z,1011.31
2023-02-05T10:34:26.274Z,1011.31
2023-02-05T10:35:26.266Z,1011.24
2023-02-05T10:36:26.243Z,1011.23
2023-02-05T10:37:26.222Z,1011.23
2023-02-05T10:38:26.213Z,1011.24
2023-02-05T10:39:26.185Z,1011.25
2023-02-05T10:40:26.170Z,1011.23
2023-02-05T10:41:26.144Z,1011.28
2023-02-05T10:42:26.132Z,1011.30
2023-02-05T10:43:26.113Z,1011.27
2023-02-05T10:44:26.089Z,1011.23
2023-02-05T10:45:26.081Z,1011.22
2023-02-05T10:46:26.057Z,1011.22
2023-02-05T10:47:26.032Z,1011.17
2023-02-05T10:48:26.013Z,1011.19
2023-02-05T10:49:25.996Z,1011.23
2023-02-05T10:50:25.975Z,1011.19
2023-02-05T10:51:25.956Z,1011.22
2023-02-05T10:52:25.935Z,1011.17
2023-02-05T10:53:25.945Z,1011.16
2023-02-05T10:54:25.911Z,1011.10
2023-02-05T10:55:25.892Z,1011.10
2023-02-05T10:56:25.877Z,1011.06
2023-02-05T10:57:25.852Z,1011.09
2023-02-05T10:58:25.836Z,1011.07
2023-02-05T10:59:26.973Z,1011.07
2023-02-05T11:00:25.826Z,1011.06
2023-02-05T11:01:25.813Z,1011.08
2023-02-05T11:02:25.787Z,1011.07
2023-02-05T11:03:25.737Z,1011.08
2023-02-05T11:04:25.725Z,1011.09
2023-02-05T11:05:25.730Z,1011.03
2023-02-05T11:06:25.680Z,1011.04
2023-02-05T11:07:25.663Z,1011.03
2023-02-05T11:08:25.640Z,1011.05
2023-02-05T11:09:25.653Z,1011.06
2023-02-05T11:10:25.619Z,1011.07
2023-02-05T11:11:25.585Z,1011.06
2023-02-05T11:12:25.572Z,1011.02
2023-02-05T11:13:25.554Z,1011.00
2023-02-05T11:14:25.534Z,1010.97
2023-02-05T11:15:25.521Z,1010.97
2023-02-05T11:16:25.499Z,1010.98
2023-02-05T11:17:25.481Z,1010.97
2023-02-05T11:18:25.465Z,1010.96
2023-02-05T11:19:25.432Z,1010.98
2023-02-05T11:20:25.417Z,1011.00
2023-02-05T11:21:25.402Z,1011.02
2023-02-05T11:22:25.382Z,1010.98
2023-02-05T11:23:25.363Z,1010.94
2023-02-05T11:24:25.347Z,1010.95
2023-02-05T11:25:25.343Z,1010.92
2023-02-05T11:26:25.310Z,1010.93
2023-02-05T11:27:25.294Z,1010.91
2023-02-05T11:28:25.274Z,1010.97
2023-02-05T11:29:25.255Z,1010.93
2023-02-05T11:30:49.573Z,1010.91
2023-02-05T11:31:25.292Z,1010.92
2023-02-05T11:32:25.261Z,1010.92
2023-02-05T11:33:25.200Z,1010.94
2023-02-05T11:34:25.160Z,1010.94
2023-02-05T11:35:25.183Z,1010.91
2023-02-05T11:36:25.153Z,1010.85
2023-02-05T11:37:25.112Z,1010.81
2023-02-05T11:38:25.088Z,1010.82
2023-02-05T11:39:25.072Z,1010.87
2023-02-05T11:40:25.058Z,1010.85
2023-02-05T11:41:25.039Z,1010.83
2023-02-05T11:42:25.012Z,1010.82
2023-02-05T11:43:24.999Z,1010.80
2023-02-05T11:44:24.983Z,1010.79
2023-02-05T11:45:24.959Z,1010.76
2023-02-05T11:46:24.981Z,1010.82
2023-02-05T11:47:24.919Z,1010.75
2023-02-05T11:48:24.904Z,1010.75
2023-02-05T11:49:30.158Z,1010.76
2023-02-05T11:50:24.868Z,1010.81
2023-02-05T11:51:24.842Z,1010.79
2023-02-05T11:52:24.840Z,1010.77
2023-02-05T11:53:24.804Z,1010.78
2023-02-05T11:54:24.807Z,1010.72
2023-02-05T11:55:24.774Z,1010.72
2023-02-05T11:56:25.505Z,1010.76
2023-02-05T11:57:24.741Z,1010.72
2023-02-05T11:58:34.901Z,1010.72
2023-02-05T11:59:24.712Z,1010.76
2023-02-05T12:00:24.678Z,1010.71
2023-02-05T12:01:24.674Z,1010.71
2023-02-05T12:02:24.638Z,1010.71
2023-02-05T12:03:24.632Z,1010.70
2023-02-05T12:04:24.615Z,1010.69
2023-02-05T12:05:24.584Z,1010.66
2023-02-05T12:06:24.578Z,1010.66
2023-02-05T12:07:24.549Z,1010.64
2023-02-05T12:08:24.530Z,1010.64